Time;durP1;ratioP1;P1;durP2;ratioP2;P2;SDS_P1;SDS_P2;PMS_P1;PMS_P2;Temp;Humidity;BMP_temperature;BMP_pressure;BME280_temperature;BME280_humidity;BME280_pressure;Samples;Min_cycle;Max_cycle;Signal;HPM_P1;HPM_P2
2021/09/13 00:00:44;;;;;;;5.30;3.30;;;15.80;99.90;;;;;;5051388;28;20025;-69
2021/09/13 00:03:09;;;;;;;3.88;3.33;;;15.80;99.90;;;;;;5050696;28;20074;-70
2021/09/13 00:05:35;;;;;;;3.55;2.95;;;15.80;99.90;;;;;;5051463;28;20104;-69
2021/09/13 00:08:00;;;;;;;4.05;2.92;;;15.80;99.90;;;;;;5051551;28;20066;-70
2021/09/13 00:10:26;;;;;;;3.70;3.00;;;15.80;99.90;;;;;;5051838;28;20026;-70
2021/09/13 00:12:52;;;;;;;4.63;2.72;;;15.80;99.90;;;;;;5051273;28;20439;-70
2021/09/13 00:15:18;;;;;;;3.60;3.00;;;15.70;99.90;;;;;;5051237;28;20158;-70
2021/09/13 00:17:44;;;;;;;3.83;3.22;;;15.70;99.90;;;;;;5049871;28;20021;-70
2021/09/13 00:20:10;;;;;;;4.90;3.50;;;15.70;99.90;;;;;;5051622;28;20085;-70
2021/09/13 00:22:35;;;;;;;4.38;3.33;;;15.70;99.90;;;;;;5050163;28;20075;-69
2021/09/13 00:25:01;;;;;;;3.25;2.97;;;15.60;99.90;;;;;;5051399;28;20040;-71
2021/09/13 00:27:27;;;;;;;3.67;3.35;;;15.60;99.90;;;;;;5049818;28;20110;-70
2021/09/13 00:29:52;;;;;;;3.38;3.08;;;15.50;99.90;;;;;;5050415;28;20612;-70
2021/09/13 00:32:18;;;;;;;4.00;3.60;;;15.50;99.90;;;;;;5051593;28;20029;-71
2021/09/13 00:34:44;;;;;;;4.32;3.33;;;15.50;99.90;;;;;;5049360;28;20477;-69
2021/09/13 00:37:09;;;;;;;4.80;3.70;;;15.40;99.90;;;;;;5051296;28;20086;-70
2021/09/13 00:39:35;;;;;;;3.60;3.25;;;15.40;99.90;;;;;;5050192;28;20029;-69
2021/09/13 00:42:01;;;;;;;4.63;3.67;;;15.30;99.90;;;;;;5050989;28;20061;-69
2021/09/13 00:44:26;;;;;;;3.15;2.85;;;15.40;99.90;;;;;;5051143;28;20021;-69
2021/09/13 00:46:53;;;;;;;3.88;2.90;;;15.30;99.90;;;;;;5049980;28;20079;-69
2021/09/13 00:49:19;;;;;;;3.17;2.88;;;15.30;99.90;;;;;;5051131;28;20017;-71
2021/09/13 00:51:45;;;;;;;3.92;3.25;;;15.20;99.90;;;;;;5050434;28;20024;-70
2021/09/13 00:54:11;;;;;;;3.20;2.90;;;15.20;99.90;;;;;;5050779;28;20111;-70
2021/09/13 00:56:40;;;;;;;4.28;2.95;;;15.20;99.90;;;;;;5047985;28;20021;-69
2021/09/13 00:59:06;;;;;;;4.05;3.65;;;15.20;99.90;;;;;;5048602;28;20025;-69
2021/09/13 01:01:31;;;;;;;3.72;3.33;;;15.20;99.90;;;;;;5050660;28;20037;-69
2021/09/13 01:03:57;;;;;;;4.30;3.08;;;15.20;99.90;;;;;;5050428;28;20033;-70
2021/09/13 01:06:23;;;;;;;4.35;3.60;;;15.10;99.90;;;;;;5046963;28;20048;-69
2021/09/13 01:08:48;;;;;;;3.22;2.92;;;15.10;99.90;;;;;;5049759;28;20421;-69
2021/09/13 01:11:15;;;;;;;3.85;3.45;;;15.10;99.90;;;;;;5050861;28;20029;-70
2021/09/13 01:13:41;;;;;;;6.00;3.53;;;15.10;99.90;;;;;;5045626;28;20502;-69
2021/09/13 01:16:07;;;;;;;4.00;2.90;;;15.10;99.90;;;;;;5050706;28;20025;-69
2021/09/13 01:18:33;;;;;;;3.13;2.83;;;15.10;99.90;;;;;;5050175;28;20032;-70
2021/09/13 01:20:59;;;;;;;5.38;2.85;;;15.10;99.90;;;;;;5050176;28;20021;-70
2021/09/13 01:23:30;;;;;;;3.13;2.83;;;15.00;99.90;;;;;;5050678;28;20032;-69
2021/09/13 01:25:56;;;;;;;3.30;3.00;;;15.00;99.90;;;;;;5049843;28;20021;-69
2021/09/13 01:28:22;;;;;;;4.80;3.10;;;15.00;99.90;;;;;;5050442;28;20474;-69
2021/09/13 01:30:48;;;;;;;4.03;3.28;;;15.00;99.90;;;;;;5048723;28;20071;-69
2021/09/13 01:33:14;;;;;;;3.10;2.80;;;15.00;99.90;;;;;;5048064;28;20021;-69
2021/09/13 01:35:39;;;;;;;4.45;2.80;;;14.90;99.90;;;;;;5049891;28;20100;-70
2021/09/13 01:38:05;;;;;;;4.25;2.90;;;14.90;99.90;;;;;;5050401;28;20360;-70
2021/09/13 01:40:31;;;;;;;3.55;3.22;;;14.80;99.90;;;;;;5050204;28;20033;-70
2021/09/13 01:43:01;;;;;;;4.93;2.97;;;14.80;99.90;;;;;;5049390;28;20053;-70
2021/09/13 01:45:27;;;;;;;;;;;14.80;99.90;;;;;;5048552;28;20017;-70
2021/09/13 01:47:53;;;;;;;3.45;3.15;;;14.70;99.90;;;;;;5049562;28;20505;-70
2021/09/13 01:50:19;;;;;;;5.72;3.40;;;14.70;99.90;;;;;;5048639;28;20467;-70
2021/09/13 01:52:45;;;;;;;3.80;3.40;;;14.60;99.90;;;;;;5049611;28;20024;-70
2021/09/13 01:55:11;;;;;;;3.92;3.63;;;14.60;99.90;;;;;;5050145;28;20471;-70
2021/09/13 01:57:37;;;;;;;5.30;3.45;;;14.60;99.90;;;;;;5050645;28;20079;-69
2021/09/13 02:00:05;;;;;;;5.07;3.45;;;14.50;99.90;;;;;;5051533;28;20029;-70
2021/09/13 02:02:30;;;;;;;4.63;3.70;;;14.50;99.90;;;;;;5051224;28;20063;-69
2021/09/13 02:04:56;;;;;;;5.53;3.47;;;14.50;99.90;;;;;;5050547;28;20554;-69
2021/09/13 02:07:22;;;;;;;3.25;2.95;;;14.50;99.90;;;;;;5052352;28;20036;-69
2021/09/13 02:09:52;;;;;;;3.97;3.60;;;14.50;99.90;;;;;;5054270;28;20064;-70
2021/09/13 02:12:17;;;;;;;5.90;3.70;;;14.40;99.90;;;;;;5055376;28;20425;-70
2021/09/13 02:14:43;;;;;;;4.75;3.92;;;14.40;99.90;;;;;;5054784;28;20037;-69
2021/09/13 02:17:08;;;;;;;4.82;3.28;;;14.40;99.90;;;;;;5053841;28;20444;-70
2021/09/13 02:19:34;;;;;;;3.65;3.35;;;14.40;99.90;;;;;;5054583;28;20024;-69
2021/09/13 02:22:00;;;;;;;4.93;3.35;;;14.40;99.90;;;;;;5054655;28;20048;-69
2021/09/13 02:24:25;;;;;;;4.05;3.42;;;14.40;99.90;;;;;;5055467;28;20036;-69
2021/09/13 02:26:51;;;;;;;3.80;3.50;;;14.30;99.90;;;;;;5054109;28;20032;-70
2021/09/13 02:29:17;;;;;;;4.07;3.67;;;14.30;99.90;;;;;;5055006;28;20020;-69
2021/09/13 02:31:42;;;;;;;4.53;3.75;;;14.30;99.90;;;;;;5053763;28;20033;-70
2021/09/13 02:34:08;;;;;;;3.95;3.60;;;14.30;99.90;;;;;;5054719;28;20382;-70
2021/09/13 02:36:33;;;;;;;3.65;3.30;;;14.30;99.90;;;;;;5054621;28;20040;-70
2021/09/13 02:38:59;;;;;;;3.78;3.47;;;14.30;99.90;;;;;;5053885;28;20032;-69
2021/09/13 02:41:25;;;;;;;7.75;3.65;;;14.30;99.90;;;;;;5054411;28;20044;-69
2021/09/13 02:43:50;;;;;;;5.43;3.70;;;14.20;99.90;;;;;;5053992;28;20503;-69
2021/09/13 02:46:18;;;;;;;4.22;3.55;;;14.20;99.90;;;;;;5054570;28;20052;-70
2021/09/13 02:48:44;;;;;;;6.45;3.70;;;14.20;99.90;;;;;;5053333;28;20462;-70
2021/09/13 02:51:10;;;;;;;3.72;3.42;;;14.20;99.90;;;;;;5054727;28;20029;-69
2021/09/13 02:53:36;;;;;;;4.10;3.70;;;14.20;99.90;;;;;;5054006;28;20040;-69
2021/09/13 02:56:02;;;;;;;3.80;3.40;;;14.10;99.90;;;;;;5054188;28;20396;-69
2021/09/13 02:58:27;;;;;;;3.90;3.45;;;14.10;99.90;;;;;;5054439;28;20040;-69
2021/09/13 03:00:53;;;;;;;7.25;3.55;;;14.10;99.90;;;;;;5053893;28;20029;-69
2021/09/13 03:03:18;;;;;;;3.65;3.35;;;14.10;99.90;;;;;;5054771;28;20524;-69
2021/09/13 03:05:44;;;;;;;4.38;3.53;;;14.10;99.90;;;;;;5054054;28;20108;-69
2021/09/13 03:08:10;;;;;;;4.95;4.10;;;14.10;99.90;;;;;;5054471;28;20071;-69
2021/09/13 03:10:36;;;;;;;4.97;3.60;;;14.10;99.90;;;;;;5053015;28;20029;-70
2021/09/13 03:13:01;;;;;;;4.72;3.67;;;14.10;99.90;;;;;;5053750;28;20546;-69
2021/09/13 03:15:27;;;;;;;6.47;3.75;;;14.10;99.90;;;;;;5054296;28;20104;-70
2021/09/13 03:17:53;;;;;;;5.05;3.92;;;14.10;99.90;;;;;;5052709;28;20103;-70
2021/09/13 03:20:19;;;;;;;5.45;3.75;;;14.10;99.90;;;;;;5053736;28;20029;-70
2021/09/13 03:22:45;;;;;;;3.65;3.35;;;14.10;99.90;;;;;;5053137;28;20033;-70
2021/09/13 03:25:11;;;;;;;5.72;4.47;;;14.10;99.90;;;;;;5054132;28;20033;-69
2021/09/13 03:27:37;;;;;;;5.55;4.03;;;14.10;99.90;;;;;;5053660;28;20068;-70
2021/09/13 03:30:04;;;;;;;4.60;4.13;;;14.00;99.90;;;;;;5053839;28;20053;-70
2021/09/13 03:32:30;;;;;;;4.95;4.00;;;14.00;99.90;;;;;;5053993;28;20033;-70
2021/09/13 03:34:55;;;;;;;4.72;4.10;;;14.10;99.90;;;;;;5051905;28;20214;-70
2021/09/13 03:37:21;;;;;;;5.18;4.10;;;14.10;99.90;;;;;;5053924;28;20100;-70
2021/09/13 03:39:47;;;;;;;4.95;4.40;;;14.10;99.90;;;;;;5052809;28;20424;-69
2021/09/13 03:42:13;;;;;;;5.47;3.97;;;14.10;99.90;;;;;;5053200;28;20053;-70
2021/09/13 03:44:38;;;;;;;4.55;4.15;;;14.10;99.90;;;;;;5052779;28;20472;-70
2021/09/13 03:47:04;;;;;;;4.45;4.05;;;14.10;99.90;;;;;;5053727;28;20029;-69
2021/09/13 03:49:30;;;;;;;5.50;4.25;;;14.10;99.90;;;;;;5052961;28;20051;-70
2021/09/13 03:51:56;;;;;;;4.72;4.30;;;14.10;99.90;;;;;;5052824;28;20040;-70
2021/09/13 03:54:22;;;;;;;3.70;3.40;;;14.10;99.90;;;;;;5053002;28;20502;-69
2021/09/13 03:56:47;;;;;;;5.68;3.97;;;14.10;99.90;;;;;;5052721;28;20155;-69
2021/09/13 03:59:13;;;;;;;4.30;3.90;;;14.10;99.90;;;;;;5053464;28;20387;-69
2021/09/13 04:01:39;;;;;;;5.00;3.85;;;14.20;99.90;;;;;;5052565;28;20033;-69
2021/09/13 04:04:06;;;;;;;4.95;3.65;;;14.20;99.90;;;;;;5053419;28;20052;-69
2021/09/13 04:09:42;;;;;;;6.65;4.30;;;14.20;99.90;;;;;;5052404;28;20462;-69
2021/09/13 04:14:18;;;;;;;4.10;3.80;;;14.20;99.90;;;;;;5053221;28;20116;-70
2021/09/13 04:16:43;;;;;;;3.70;3.40;;;14.20;99.90;;;;;;5051168;28;20025;-69
2021/09/13 04:19:09;;;;;;;3.80;3.50;;;14.10;99.90;;;;;;5052610;28;20028;-69
2021/09/13 04:21:35;;;;;;;4.30;3.85;;;14.00;99.90;;;;;;5052208;28;20486;-69
2021/09/13 04:24:01;;;;;;;7.82;4.18;;;14.00;99.90;;;;;;5052244;28;20391;-69
2021/09/13 04:26:26;;;;;;;4.60;4.18;;;14.00;99.90;;;;;;5052833;28;20106;-69
2021/09/13 04:28:52;;;;;;;4.80;4.18;;;14.00;99.90;;;;;;5052119;28;20033;-69
2021/09/13 04:31:18;;;;;;;4.90;3.83;;;14.00;99.90;;;;;;5052341;28;20028;-69
2021/09/13 04:33:44;;;;;;;6.03;4.65;;;13.90;99.90;;;;;;5052043;28;20021;-70
2021/09/13 04:36:09;;;;;;;4.25;3.88;;;13.90;99.90;;;;;;5052571;28;20044;-70
2021/09/13 04:38:35;;;;;;;7.15;4.28;;;13.90;99.90;;;;;;5052424;28;20051;-69
2021/09/13 04:41:01;;;;;;;4.50;4.10;;;13.80;99.90;;;;;;5051820;28;20037;-70
2021/09/13 04:43:27;;;;;;;4.32;3.85;;;13.80;99.90;;;;;;5052872;28;20071;-69
2021/09/13 04:45:52;;;;;;;5.20;4.30;;;13.70;99.90;;;;;;5052125;28;20025;-69
2021/09/13 04:48:18;;;;;;;5.97;5.13;;;13.70;99.90;;;;;;5052326;28;20116;-69
2021/09/13 04:50:43;;;;;;;5.22;4.63;;;13.70;99.90;;;;;;5051555;28;20021;-69
2021/09/13 04:53:09;;;;;;;5.78;4.97;;;13.70;99.90;;;;;;5052426;28;20449;-69
2021/09/13 04:55:35;;;;;;;7.55;4.80;;;13.70;99.90;;;;;;5052513;28;20074;-69
2021/09/13 04:58:02;;;;;;;5.10;4.60;;;13.70;99.90;;;;;;5051441;28;20033;-69
2021/09/13 05:00:27;;;;;;;7.72;4.40;;;13.70;99.90;;;;;;5052364;28;20036;-70
2021/09/13 05:02:53;;;;;;;9.65;4.57;;;13.70;99.90;;;;;;5051243;28;20033;-70
2021/09/13 05:05:19;;;;;;;6.15;4.72;;;13.70;99.90;;;;;;5051829;28;20211;-70
2021/09/13 05:07:44;;;;;;;5.38;4.82;;;13.70;99.90;;;;;;5049836;28;20047;-69
2021/09/13 05:10:11;;;;;;;5.70;5.10;;;13.70;99.90;;;;;;5050898;28;20766;-69
2021/09/13 05:12:37;;;;;;;5.38;4.57;;;13.60;99.90;;;;;;5050887;28;20033;-69
2021/09/13 05:15:03;;;;;;;5.47;4.97;;;13.70;99.90;;;;;;5049987;28;20029;-69
2021/09/13 05:17:29;;;;;;;7.85;5.40;;;13.70;99.90;;;;;;5051085;28;20013;-70
2021/09/13 05:19:55;;;;;;;6.05;5.50;;;13.70;99.90;;;;;;5049688;28;20558;-69
2021/09/13 05:22:21;;;;;;;5.47;4.97;;;13.80;99.90;;;;;;5051667;28;20069;-70
2021/09/13 05:24:47;;;;;;;7.15;5.18;;;13.80;99.90;;;;;;5050918;28;20060;-70
2021/09/13 05:27:12;;;;;;;16.50;5.53;;;13.80;99.90;;;;;;5051791;28;20036;-69
2021/09/13 05:29:38;;;;;;;5.97;5.38;;;13.80;99.90;;;;;;5051599;28;20505;-70
2021/09/13 05:32:04;;;;;;;6.35;4.55;;;13.90;99.90;;;;;;5051372;28;20032;-70
2021/09/13 05:34:30;;;;;;;5.68;4.10;;;13.90;99.90;;;;;;5051713;28;20455;-70
2021/09/13 05:36:55;;;;;;;6.55;5.20;;;13.90;99.90;;;;;;5051143;28;20024;-70
2021/09/13 05:39:21;;;;;;;6.47;5.15;;;13.90;99.90;;;;;;5051645;28;20036;-70
2021/09/13 05:41:47;;;;;;;6.43;5.68;;;14.00;99.90;;;;;;5050563;28;20057;-69
2021/09/13 05:44:13;;;;;;;7.18;4.80;;;14.10;99.90;;;;;;5051768;28;20052;-69
2021/09/13 05:46:38;;;;;;;5.15;4.65;;;14.20;99.90;;;;;;5051262;28;20033;-70
2021/09/13 05:49:09;;;;;;;5.30;4.80;;;14.30;99.90;;;;;;5050556;28;20029;-69
2021/09/13 05:51:39;;;;;;;5.40;4.63;;;14.40;99.90;;;;;;5051540;28;20139;-69
2021/09/13 05:54:05;;;;;;;8.10;5.40;;;14.50;99.90;;;;;;5051222;28;20028;-69
2021/09/13 05:56:31;;;;;;;6.07;5.00;;;14.60;99.90;;;;;;5051928;28;20467;-70
2021/09/13 05:58:57;;;;;;;5.50;4.60;;;14.60;99.90;;;;;;5050529;28;20017;-70
2021/09/13 06:01:22;;;;;;;5.00;4.50;;;14.70;99.90;;;;;;5051425;28;20506;-72
2021/09/13 06:03:48;;;;;;;8.05;4.82;;;14.70;99.90;;;;;;5050503;28;20025;-70
2021/09/13 06:06:14;;;;;;;9.13;4.65;;;14.70;99.90;;;;;;5051819;28;20450;-70
2021/09/13 06:08:39;;;;;;;7.13;4.78;;;14.80;99.90;;;;;;5051171;28;20025;-69
2021/09/13 06:11:05;;;;;;;7.68;5.15;;;14.90;99.90;;;;;;5050956;28;20043;-69
2021/09/13 06:13:31;;;;;;;19.05;5.70;;;15.00;99.90;;;;;;5051427;28;20033;-72
2021/09/13 06:15:57;;;;;;;7.43;5.07;;;15.10;99.90;;;;;;5049332;28;20108;-70
2021/09/13 06:18:22;;;;;;;6.35;5.25;;;15.10;99.90;;;;;;5050623;28;20051;-69
2021/09/13 06:20:48;;;;;;;7.53;4.88;;;15.30;99.90;;;;;;5045825;28;20029;-71
2021/09/13 06:23:14;;;;;;;4.60;4.20;;;15.30;99.90;;;;;;5052731;28;20033;-73
2021/09/13 06:25:39;;;;;;;5.25;4.55;;;15.40;99.90;;;;;;5050152;28;20032;-72
2021/09/13 06:28:05;;;;;;;5.25;4.72;;;15.40;99.90;;;;;;5050384;28;20065;-72
2021/09/13 06:30:31;;;;;;;6.25;4.90;;;15.60;99.90;;;;;;5050963;28;20037;-72
2021/09/13 06:32:56;;;;;;;4.72;4.22;;;15.60;99.90;;;;;;5050497;28;20029;-71
2021/09/13 06:35:22;;;;;;;5.30;4.35;;;15.60;99.90;;;;;;5051515;28;20041;-72
2021/09/13 06:37:48;;;;;;;7.85;5.00;;;15.80;99.90;;;;;;5050775;28;20021;-71
2021/09/13 06:40:14;;;;;;;7.53;4.80;;;15.80;99.90;;;;;;5051573;28;20040;-70
2021/09/13 06:42:40;;;;;;;5.63;4.82;;;15.90;99.90;;;;;;5051123;28;20135;-69
2021/09/13 06:45:12;;;;;;;6.45;4.78;;;16.00;99.90;;;;;;5050847;28;20470;-69
2021/09/13 06:47:44;;;;;;;7.97;5.45;;;16.10;99.90;;;;;;5051240;28;20025;-69
2021/09/13 06:50:14;;;;;;;11.05;5.85;;;16.20;99.90;;;;;;5051641;28;20386;-71
2021/09/13 06:52:39;;;;;;;6.97;5.47;;;16.30;99.90;;;;;;5050559;28;20036;-68
2021/09/13 06:55:06;;;;;;;7.13;6.07;;;16.50;99.90;;;;;;5053392;28;20379;-70
2021/09/13 06:57:35;;;;;;;7.63;6.30;;;16.60;99.90;;;;;;5054513;28;20036;-70
2021/09/13 07:00:03;;;;;;;9.13;6.15;;;16.70;99.90;;;;;;5053744;28;20048;-69
2021/09/13 07:02:31;;;;;;;7.95;6.72;;;16.90;99.90;;;;;;5054672;28;20035;-69
2021/09/13 07:04:58;;;;;;;7.13;6.15;;;17.00;99.90;;;;;;5053662;28;20501;-70
2021/09/13 07:07:23;;;;;;;10.55;6.32;;;17.10;99.90;;;;;;5054615;28;20025;-73
2021/09/13 07:09:49;;;;;;;8.55;5.68;;;17.20;99.90;;;;;;5049355;28;20037;-69
2021/09/13 07:12:16;;;;;;;12.68;6.70;;;17.30;99.90;;;;;;5049772;28;20467;-68
2021/09/13 07:14:42;;;;;;;8.85;6.13;;;17.30;99.90;;;;;;5054359;28;20040;-68
2021/09/13 07:17:08;;;;;;;10.43;6.57;;;17.40;99.90;;;;;;5053929;28;20083;-67
2021/09/13 07:19:33;;;;;;;8.48;6.15;;;17.40;99.90;;;;;;5052118;28;20028;-67
2021/09/13 07:21:59;;;;;;;10.70;6.78;;;17.50;99.90;;;;;;5052398;28;20067;-67
2021/09/13 07:24:24;;;;;;;11.77;6.65;;;17.60;99.90;;;;;;5048914;28;20025;-66
2021/09/13 07:26:50;;;;;;;12.73;6.38;;;17.70;99.90;;;;;;5052278;28;20040;-67
2021/09/13 07:29:16;;;;;;;8.60;6.70;;;17.80;99.90;;;;;;5048484;28;20033;-66
2021/09/13 07:31:41;;;;;;;11.75;6.82;;;17.80;99.90;;;;;;5051486;28;20029;-65
2021/09/13 07:34:07;;;;;;;11.77;6.82;;;17.90;99.90;;;;;;5051253;28;20025;-67
2021/09/13 07:36:33;;;;;;;18.05;7.63;;;18.00;99.90;;;;;;5053245;28;20028;-67
2021/09/13 07:38:59;;;;;;;9.73;6.47;;;18.00;99.90;;;;;;5051405;28;20687;-67
2021/09/13 07:41:25;;;;;;;9.00;6.25;;;18.10;99.90;;;;;;5053337;28;20040;-66
2021/09/13 07:43:51;;;;;;;9.10;5.63;;;18.10;99.90;;;;;;5052356;28;20035;-68
2021/09/13 07:46:16;;;;;;;13.38;6.43;;;18.10;99.90;;;;;;5052585;28;20037;-66
2021/09/13 07:48:42;;;;;;;11.45;5.38;;;18.30;99.90;;;;;;5055887;28;20021;-67
2021/09/13 07:51:08;;;;;;;9.52;5.35;;;18.30;99.90;;;;;;5072383;28;20470;-67
2021/09/13 07:53:34;;;;;;;8.32;5.50;;;18.30;99.90;;;;;;5073275;28;20036;-68
2021/09/13 07:55:59;;;;;;;8.45;5.47;;;18.40;99.90;;;;;;5070937;28;20379;-66
2021/09/13 07:58:25;;;;;;;6.75;4.90;;;18.50;99.90;;;;;;5058372;28;20036;-66
2021/09/13 08:00:51;;;;;;;6.13;4.85;;;18.50;99.90;;;;;;5052136;28;20378;-67
2021/09/13 08:03:16;;;;;;;7.78;4.55;;;18.70;99.90;;;;;;5052779;28;20033;-67
2021/09/13 08:05:42;;;;;;;5.43;4.90;;;18.80;99.90;;;;;;5052696;28;20028;-67
2021/09/13 08:08:08;;;;;;;7.55;5.20;;;18.90;99.90;;;;;;5051975;28;20143;-67
2021/09/13 08:10:33;;;;;;;7.75;5.32;;;19.00;99.90;;;;;;5052216;28;20105;-67
2021/09/13 08:12:59;;;;;;;7.85;5.47;;;19.10;99.90;;;;;;5051452;28;20403;-66
2021/09/13 08:15:25;;;;;;;6.70;4.85;;;19.30;99.90;;;;;;5052064;28;20074;-67
2021/09/13 08:17:51;;;;;;;10.23;4.97;;;19.30;99.90;;;;;;5048977;28;20067;-67
2021/09/13 08:20:17;;;;;;;9.13;5.53;;;19.50;99.90;;;;;;5066185;28;20427;-66
2021/09/13 08:22:43;;;;;;;9.32;6.00;;;19.60;99.90;;;;;;5052375;28;20041;-66
2021/09/13 08:25:09;;;;;;;9.85;5.60;;;19.70;99.90;;;;;;5051819;28;20074;-67
2021/09/13 08:27:34;;;;;;;13.63;6.03;;;19.80;99.90;;;;;;5049929;28;20083;-67
2021/09/13 08:30:00;;;;;;;6.63;5.28;;;19.80;99.90;;;;;;5051428;28;20421;-66
2021/09/13 08:32:25;;;;;;;10.50;5.15;;;19.90;99.90;;;;;;5052690;28;20029;-66
2021/09/13 08:34:52;;;;;;;9.85;4.75;;;20.00;99.90;;;;;;5051669;28;20025;-66
2021/09/13 08:37:17;;;;;;;6.95;5.00;;;20.00;99.90;;;;;;5052394;28;20393;-66
2021/09/13 08:39:43;;;;;;;8.55;4.85;;;20.20;99.90;;;;;;5052450;28;20033;-67
2021/09/13 08:42:09;;;;;;;8.00;5.15;;;20.20;99.90;;;;;;5050752;28;20065;-66
2021/09/13 08:44:35;;;;;;;7.82;5.00;;;20.30;99.90;;;;;;5052416;28;20126;-68
2021/09/13 08:47:10;;;;;;;7.43;4.43;;;20.40;99.90;;;;;;5051439;28;20043;-76
2021/09/13 08:49:39;;;;;;;5.85;3.60;;;20.40;99.90;;;;;;5062406;28;20039;-76
2021/09/13 08:52:05;;;;;;;5.72;3.35;;;20.60;99.90;;;;;;5071516;28;20055;-76
2021/09/13 08:54:34;;;;;;;4.85;3.33;;;20.70;99.50;;;;;;5072137;28;20393;-77
2021/09/13 08:57:05;;;;;;;5.38;3.20;;;20.80;98.80;;;;;;5071233;28;20485;-76
2021/09/13 08:59:35;;;;;;;7.38;3.65;;;20.80;98.70;;;;;;5072150;28;20032;-77
2021/09/13 09:02:01;;;;;;;6.50;3.10;;;21.00;98.40;;;;;;5071130;28;20169;-66
2021/09/13 09:04:29;;;;;;;5.55;2.80;;;21.00;97.70;;;;;;5072002;28;20036;-66
2021/09/13 09:07:05;;;;;;;7.32;3.97;;;21.00;97.80;;;;;;5070772;28;20036;-66
2021/09/13 09:09:31;;;;;;;5.57;2.88;;;21.10;97.70;;;;;;5072012;28;20032;-67
2021/09/13 09:12:03;;;;;;;4.93;3.40;;;21.20;97.60;;;;;;5051195;28;20087;-66
2021/09/13 09:14:34;;;;;;;7.25;4.30;;;21.30;97.00;;;;;;5045083;28;20021;-67
2021/09/13 09:17:03;;;;;;;5.13;3.30;;;21.40;96.70;;;;;;5051208;28;20029;-68
2021/09/13 09:19:30;;;;;;;5.97;4.18;;;21.60;96.60;;;;;;5061446;28;20107;-74
2021/09/13 09:21:56;;;;;;;5.07;3.45;;;21.70;95.90;;;;;;5071132;28;20115;-67
2021/09/13 09:24:22;;;;;;;6.63;3.20;;;21.80;95.90;;;;;;5072028;28;20025;-66
2021/09/13 09:27:05;;;;;;;4.63;3.22;;;21.80;95.00;;;;;;5071281;28;20024;-66
2021/09/13 09:29:35;;;;;;;5.85;3.42;;;21.90;94.80;;;;;;5072227;28;20032;-67
2021/09/13 09:32:02;;;;;;;3.13;2.78;;;22.00;94.80;;;;;;5071398;28;20543;-66
2021/09/13 09:34:31;;;;;;;6.70;3.08;;;22.10;94.10;;;;;;5072084;28;20035;-67
2021/09/13 09:37:00;;;;;;;5.38;3.10;;;22.20;93.80;;;;;;5071639;28;20399;-66
2021/09/13 09:39:29;;;;;;;3.97;3.00;;;22.40;92.90;;;;;;5072081;28;20115;-66
2021/09/13 09:41:56;;;;;;;9.63;3.75;;;22.50;92.80;;;;;;5056769;28;20404;-66
2021/09/13 09:44:23;;;;;;;6.80;3.30;;;22.50;92.10;;;;;;5051996;28;20029;-66
2021/09/13 09:46:49;;;;;;;3.95;3.35;;;22.50;92.10;;;;;;5050956;28;20029;-67
2021/09/13 09:49:19;;;;;;;4.97;3.67;;;22.50;91.80;;;;;;5051772;28;20044;-67
2021/09/13 09:51:50;;;;;;;7.82;3.53;;;22.60;91.60;;;;;;5051726;28;20383;-67
2021/09/13 09:54:18;;;;;;;5.30;3.60;;;22.70;91.60;;;;;;5051271;28;20100;-67
2021/09/13 09:56:47;;;;;;;4.65;3.50;;;22.80;91.30;;;;;;5051351;28;20116;-67
2021/09/13 09:59:17;;;;;;;4.53;3.10;;;22.90;91.00;;;;;;5050864;28;20041;-67
2021/09/13 10:01:45;;;;;;;3.95;2.85;;;23.00;91.10;;;;;;5051905;28;20387;-67
2021/09/13 10:04:18;;;;;;;5.65;3.42;;;23.10;91.10;;;;;;5051148;28;20072;-67
2021/09/13 10:06:46;;;;;;;4.57;3.03;;;23.20;90.70;;;;;;5051755;28;20159;-69
2021/09/13 10:09:13;;;;;;;5.30;3.25;;;23.40;90.40;;;;;;5039917;28;20017;-68
2021/09/13 10:11:40;;;;;;;6.22;4.40;;;23.50;89.40;;;;;;5052435;28;20477;-67
2021/09/13 10:14:09;;;;;;;8.13;4.30;;;23.70;88.80;;;;;;5051281;28;20025;-67
2021/09/13 10:16:39;;;;;;;3.42;3.05;;;23.80;89.00;;;;;;5051351;28;20021;-67
2021/09/13 10:19:06;;;;;;;5.55;3.22;;;23.80;89.30;;;;;;5050095;28;20470;-66
2021/09/13 10:21:32;;;;;;;8.77;3.42;;;23.80;89.10;;;;;;5051030;28;20466;-74
2021/09/13 10:23:59;;;;;;;8.13;3.70;;;23.90;89.20;;;;;;5050222;28;20074;-67
2021/09/13 10:26:24;;;;;;;4.10;3.10;;;24.00;88.20;;;;;;5050267;28;20504;-70
2021/09/13 10:29:02;;;;;;;5.95;3.60;;;24.10;87.40;;;;;;5051686;28;20033;-71
2021/09/13 10:31:45;;;;;;;7.30;3.92;;;24.20;86.90;;;;;;5054796;28;20029;-65
2021/09/13 10:34:16;;;;;;;8.60;3.58;;;24.10;86.40;;;;;;5053995;28;20157;-72
2021/09/13 10:37:04;;;;;;;6.00;3.85;;;24.20;87.50;;;;;;5054890;28;20527;-70
2021/09/13 10:39:56;;;;;;;4.75;3.50;;;24.30;86.20;;;;;;5034845;28;20034;-73
2021/09/13 10:42:31;;;;;;;5.85;3.78;;;24.40;85.60;;;;;;5052264;28;20067;-67
2021/09/13 10:45:18;;;;;;;7.47;4.28;;;24.40;85.20;;;;;;5052287;28;20021;-68
2021/09/13 10:47:49;;;;;;;3.97;3.58;;;24.60;84.80;;;;;;5054292;28;20462;-66
2021/09/13 10:50:22;;;;;;;4.25;3.53;;;24.60;85.10;;;;;;5054229;28;20029;-67
2021/09/13 10:52:50;;;;;;;5.72;3.75;;;24.80;84.80;;;;;;5054198;28;20029;-66
2021/09/13 10:55:20;;;;;;;5.10;3.72;;;24.90;84.10;;;;;;5054458;28;20028;-66
2021/09/13 10:58:07;;;;;;;6.65;3.33;;;25.00;83.90;;;;;;5054370;28;20032;-71
2021/09/13 11:00:42;;;;;;;4.20;3.80;;;25.10;82.40;;;;;;5054479;28;20029;-71
2021/09/13 11:06:13;;;;;;;4.47;3.35;;;25.40;81.00;;;;;;5054060;28;20044;-66
2021/09/13 11:08:44;;;;;;;4.15;3.75;;;25.50;80.40;;;;;;5047974;28;20386;-68
2021/09/13 11:11:17;;;;;;;9.38;3.90;;;25.70;80.40;;;;;;5053528;28;20029;-66
2021/09/13 11:13:44;;;;;;;4.35;3.80;;;25.80;78.50;;;;;;5053591;28;20033;-66
2021/09/13 11:16:16;;;;;;;4.10;3.50;;;25.70;78.00;;;;;;5053024;28;20033;-66
2021/09/13 11:18:43;;;;;;;3.53;3.22;;;25.60;79.10;;;;;;5053448;28;20029;-71
2021/09/13 11:21:23;;;;;;;3.20;2.90;;;25.60;78.10;;;;;;5053261;28;20045;-66
2021/09/13 11:24:10;;;;;;;4.20;3.35;;;25.70;78.50;;;;;;5053925;28;20029;-66
2021/09/13 11:26:35;;;;;;;3.80;3.42;;;25.80;77.00;;;;;;5054459;28;20382;-66
2021/09/13 11:29:08;;;;;;;3.25;2.95;;;25.80;76.50;;;;;;5052042;28;20021;-66
2021/09/13 11:31:38;;;;;;;5.13;3.33;;;25.70;77.50;;;;;;5053117;28;20170;-66
2021/09/13 11:34:37;;;;;;;12.05;3.20;;;25.70;76.70;;;;;;5053202;28;20112;-71
2021/09/13 11:37:14;;;;;;;4.47;2.80;;;26.10;76.10;;;;;;5052944;28;20029;-66
2021/09/13 11:39:44;;;;;;;5.88;3.08;;;26.50;75.70;;;;;;5033146;28;20034;-67
2021/09/13 11:42:20;;;;;;;4.47;3.05;;;26.70;73.50;;;;;;5048452;28;20387;-67
2021/09/13 11:44:53;;;;;;;3.72;3.35;;;26.60;74.00;;;;;;5053275;28;20025;-67
2021/09/13 11:47:21;;;;;;;3.25;2.95;;;26.50;73.90;;;;;;5053523;28;20036;-67
2021/09/13 11:49:51;;;;;;;5.43;2.90;;;26.40;74.00;;;;;;5052633;28;20021;-67
2021/09/13 11:52:28;;;;;;;2.90;2.70;;;;;;;;;;5053263;28;20033;-67
2021/09/13 11:55:00;;;;;;;3.17;2.55;;;;;;;;;;5050723;28;20381;-67
2021/09/13 11:57:51;;;;;;;3.20;2.90;;;27.60;69.30;;;;;;5053064;28;20071;-67
2021/09/13 12:00:22;;;;;;;2.65;2.20;;;27.90;69.70;;;;;;5041610;28;20029;-67
2021/09/13 12:02:48;;;;;;;4.50;2.80;;;28.10;67.60;;;;;;5033184;28;20364;-69
2021/09/13 12:05:23;;;;;;;2.70;2.50;;;28.10;67.00;;;;;;5032435;28;20065;-68
2021/09/13 12:07:53;;;;;;;3.55;2.88;;;27.90;66.10;;;;;;5053769;28;20378;-68
2021/09/13 12:10:23;;;;;;;4.23;2.50;;;27.70;66.40;;;;;;5052788;28;20032;-68
2021/09/13 12:12:50;;;;;;;;;;;27.60;67.00;;;;;;5053281;28;20092;-68
2021/09/13 12:15:17;;;;;;;2.70;2.50;;;27.50;66.20;;;;;;5052054;28;19904;-68
2021/09/13 12:17:48;;;;;;;3.13;2.55;;;27.30;66.60;;;;;;5052817;28;20025;-68
2021/09/13 12:20:22;;;;;;;2.83;2.63;;;27.10;66.90;;;;;;5052498;28;20020;-68
2021/09/13 12:23:00;;;;;;;3.55;2.58;;;27.00;66.70;;;;;;5053106;28;20037;-68
2021/09/13 12:25:27;;;;;;;3.97;2.40;;;26.90;67.20;;;;;;5052975;28;20125;-68
2021/09/13 12:27:58;;;;;;;5.20;3.10;;;27.00;67.20;;;;;;5052077;28;20104;-68
2021/09/13 12:30:26;;;;;;;3.95;2.92;;;27.30;66.40;;;;;;5052181;28;20021;-68
2021/09/13 12:32:58;;;;;;;3.40;2.80;;;27.40;67.20;;;;;;5052052;28;20073;-67
2021/09/13 12:35:37;;;;;;;3.38;3.08;;;27.40;67.40;;;;;;5052605;28;20060;-68
2021/09/13 12:38:10;;;;;;;3.42;3.13;;;27.20;68.40;;;;;;5060057;28;20035;-68
2021/09/13 12:40:51;;;;;;;5.05;3.22;;;27.10;70.00;;;;;;5069248;28;20021;-69
2021/09/13 12:43:31;;;;;;;3.08;2.58;;;27.20;68.80;;;;;;5052852;28;20139;-69
2021/09/13 12:46:05;;;;;;;;;;;27.30;68.30;;;;;;5060279;28;20488;-69
2021/09/13 12:48:32;;;;;;;3.25;2.95;;;27.60;68.70;;;;;;5061836;28;19905;-68
2021/09/13 12:50:59;;;;;;;3.58;3.13;;;27.60;68.30;;;;;;5050873;28;20021;-68
2021/09/13 12:53:30;;;;;;;3.38;2.80;;;27.70;68.60;;;;;;5071385;28;20123;-66
2021/09/13 12:56:11;;;;;;;6.63;3.28;;;27.90;66.70;;;;;;5064864;28;20020;-66
2021/09/13 12:58:37;;;;;;;4.68;3.30;;;28.00;67.60;;;;;;5051571;28;20107;-66